Time;durP1;ratioP1;P1;durP2;ratioP2;P2;SDS_P1;SDS_P2;PMS_P1;PMS_P2;Temp;Humidity;BMP_temperature;BMP_pressure;BME280_temperature;BME280_humidity;BME280_pressure;Samples;Min_cycle;Max_cycle;Signal;HPM_P1;HPM_P2
2022/05/13 00:01:25;;;;;;;6.30;4.93;;;;;;;;;;4950720;28;20206;-76
2022/05/13 00:03:51;;;;;;;5.93;5.33;;;;;;;;;;4949475;28;20183;-77
2022/05/13 00:06:16;;;;;;;8.60;5.43;;;;;;;;;;4942678;28;20190;-77
2022/05/13 00:08:41;;;;;;;6.00;5.17;;;;;;;;;;4942945;28;20213;-76
2022/05/13 00:11:08;;;;;;;7.90;5.83;;;;;;;;;;4947813;28;20253;-76
2022/05/13 00:13:33;;;;;;;6.53;5.43;;;;;;;;;;4954100;28;20203;-77
2022/05/13 00:15:59;;;;;;;6.57;5.87;;;;;;;;;;4947572;28;20188;-77
2022/05/13 00:18:24;;;;;;;6.07;5.30;;;;;;;;;;4946772;28;20179;-77
2022/05/13 00:20:53;;;;;;;5.83;5.07;;;;;;;;;;4954743;28;20229;-77
2022/05/13 00:23:18;;;;;;;5.13;4.60;;;;;;;;;;4952791;28;20213;-77
2022/05/13 00:25:43;;;;;;;6.50;5.43;;;;;;;;;;4949440;28;20222;-77
2022/05/13 00:28:09;;;;;;;7.00;4.93;;;;;;;;;;4955346;28;20178;-76
2022/05/13 00:30:38;;;;;;;6.43;5.80;;;;;;;;;;4963626;28;20188;-76
2022/05/13 00:33:04;;;;;;;5.33;4.53;;;;;;;;;;4953943;28;20210;-77
2022/05/13 00:35:29;;;;;;;6.40;5.80;;;;;;;;;;4952742;28;20298;-76
2022/05/13 00:37:54;;;;;;;7.17;5.57;;;;;;;;;;4950511;28;20182;-76
2022/05/13 00:40:21;;;;;;;9.83;5.90;;;;;;;;;;4949934;28;20185;-76
2022/05/13 00:42:46;;;;;;;6.03;5.43;;;;;;;;;;4952047;28;20181;-76
2022/05/13 00:45:15;;;;;;;6.00;5.40;;;;;;;;;;4965443;28;20186;-77
2022/05/13 00:47:40;;;;;;;6.30;5.33;;;;;;;;;;4946204;28;20178;-77
2022/05/13 00:50:07;;;;;;;6.23;5.50;;;;;;;;;;4947687;28;20185;-76
2022/05/13 00:52:32;;;;;;;6.47;5.87;;;;;;;;;;4948704;28;20221;-76
2022/05/13 00:54:59;;;;;;;9.47;5.17;;;;;;;;;;4946367;28;20205;-76
2022/05/13 00:57:25;;;;;;;10.27;6.10;;;;;;;;;;4951295;28;20254;-76
2022/05/13 00:59:51;;;;;;;7.27;5.60;;;;;;;;;;4945919;28;20266;-76
2022/05/13 01:02:16;;;;;;;5.40;4.90;;;;;;;;;;4954963;28;20278;-76
2022/05/13 01:04:42;;;;;;;9.23;5.90;;;;;;;;;;4949259;28;20214;-76
2022/05/13 01:07:12;;;;;;;9.67;6.13;;;;;;;;;;4951025;28;20187;-77
2022/05/13 01:09:40;;;;;;;7.73;5.63;;;;;;;;;;4951618;28;20193;-76
2022/05/13 01:12:09;;;;;;;7.17;6.50;;;;;;;;;;4946007;28;20275;-76
2022/05/13 01:14:46;;;;;;;6.67;5.47;;;;;;;;;;4953029;28;20255;-75
2022/05/13 01:20:08;;;;;;;7.53;6.33;;;;;;;;;;4943966;28;20204;-75
2022/05/13 01:22:47;;;;;;;8.40;5.83;;;;;;;;;;4947269;28;20174;-75
2022/05/13 01:25:14;;;;;;;8.20;6.93;;;;;;;;;;4943261;28;20197;-75
2022/05/13 01:27:40;;;;;;;8.97;7.00;;;;;;;;;;4944445;28;20185;-75
2022/05/13 01:30:06;;;;;;;7.03;6.33;;;;;;;;;;4949861;28;20236;-75
2022/05/13 01:32:31;;;;;;;8.33;6.77;;;;;;;;;;4952680;28;20209;-75
2022/05/13 01:34:56;;;;;;;8.10;7.30;;;;;;;;;;4943390;28;20269;-76
2022/05/13 01:37:21;;;;;;;8.10;6.60;;;;;;;;;;4950203;28;20195;-77
2022/05/13 01:39:46;;;;;;;8.20;7.40;;;;;;;;;;4944424;28;20182;-77
2022/05/13 01:42:12;;;;;;;8.57;6.93;;;;;;;;;;4954001;28;20182;-77
2022/05/13 01:44:37;;;;;;;8.30;6.87;;;;;;;;;;4946554;28;20316;-77
2022/05/13 01:47:02;;;;;;;11.10;7.53;;;;;;;;;;4947102;28;20181;-77
2022/05/13 01:49:27;;;;;;;8.20;7.40;;;;;;;;;;4947962;28;20542;-76
2022/05/13 01:51:52;;;;;;;7.30;6.63;;;;;;;;;;4942744;28;20288;-76
2022/05/13 01:54:18;;;;;;;8.77;6.83;;;;;;;;;;4942525;28;20205;-76
2022/05/13 01:56:43;;;;;;;7.33;6.37;;;;;;;;;;4945908;28;20185;-76
2022/05/13 01:59:08;;;;;;;7.67;6.40;;;;;;;;;;4953899;28;20299;-76
2022/05/13 02:01:33;;;;;;;9.30;7.10;;;;;;;;;;4946782;28;20189;-75
2022/05/13 02:03:58;;;;;;;9.13;6.30;;;;;;;;;;4955094;28;20184;-75
2022/05/13 02:06:26;;;;;;;7.60;6.87;;;;;;;;;;4942479;28;20306;-75
2022/05/13 02:08:53;;;;;;;7.73;6.90;;;;;;;;;;4961170;28;20194;-75
2022/05/13 02:11:19;;;;;;;7.83;5.87;;;;;;;;;;4948158;28;20494;-75
2022/05/13 02:13:45;;;;;;;6.33;5.83;;;;;;;;;;4946629;28;20330;-75
2022/05/13 02:16:11;;;;;;;6.00;5.23;;;;;;;;;;4954412;28;20181;-75
2022/05/13 02:18:36;;;;;;;7.37;5.37;;;;;;;;;;4962680;28;20194;-75
2022/05/13 02:21:02;;;;;;;5.93;4.70;;;;;;;;;;4951630;28;20185;-75
2022/05/13 02:23:27;;;;;;;7.20;5.33;;;;;;;;;;4949320;28;20260;-75
2022/05/13 02:25:56;;;;;;;6.70;4.87;;;;;;;;;;4947582;28;20188;-75
2022/05/13 02:28:22;;;;;;;6.03;5.43;;;;;;;;;;4950327;28;20191;-75
2022/05/13 02:30:47;;;;;;;7.87;5.27;;;;;;;;;;4965601;28;20188;-75
2022/05/13 02:33:15;;;;;;;5.80;5.27;;;;;;;;;;4952474;28;20217;-75
2022/05/13 02:35:40;;;;;;;7.67;5.27;;;;;;;;;;4952197;28;20213;-75
2022/05/13 02:38:05;;;;;;;5.80;5.30;;;;;;;;;;4951304;28;20182;-75
2022/05/13 02:43:14;;;;;;;9.17;4.40;;;;;;;;;;4949815;28;20191;-75
2022/05/13 02:45:40;;;;;;;7.30;4.43;;;;;;;;;;4950756;28;20180;-75
2022/05/13 02:48:05;;;;;;;5.60;4.73;;;;;;;;;;4947500;28;20181;-75
2022/05/13 02:50:30;;;;;;;5.10;4.37;;;;;;;;;;4952188;28;20272;-75
2022/05/13 02:52:57;;;;;;;7.20;4.73;;;;;;;;;;4945906;28;20305;-75
2022/05/13 02:55:22;;;;;;;4.63;4.17;;;;;;;;;;4944828;28;20182;-75
2022/05/13 02:57:47;;;;;;;6.43;4.67;;;;;;;;;;4952726;28;20233;-75
2022/05/13 03:00:13;;;;;;;10.07;4.63;;;;;;;;;;4948977;28;20191;-75
2022/05/13 03:02:38;;;;;;;6.17;5.17;;;;;;;;;;4952229;28;20187;-75
2022/05/13 03:05:04;;;;;;;6.13;4.50;;;;;;;;;;4953365;28;20182;-75
2022/05/13 03:07:29;;;;;;;10.03;5.23;;;;;;;;;;4946915;28;20184;-75
2022/05/13 03:09:54;;;;;;;6.40;5.13;;;;;;;;;;4953405;28;20184;-75
2022/05/13 03:12:19;;;;;;;11.30;5.73;;;;;;;;;;4949499;28;20260;-75
2022/05/13 03:14:44;;;;;;;6.90;4.87;;;;;;;;;;4955150;28;20200;-75
2022/05/13 03:17:10;;;;;;;6.97;5.63;;;;;;;;;;4946071;28;20208;-75
2022/05/13 03:19:36;;;;;;;9.57;5.73;;;;;;;;;;4943373;28;20209;-75
2022/05/13 03:22:01;;;;;;;7.30;5.57;;;;;;;;;;4943734;28;20195;-75
2022/05/13 03:24:26;;;;;;;6.43;5.17;;;;;;;;;;4954132;28;20240;-75
2022/05/13 03:26:51;;;;;;;6.70;4.80;;;;;;;;;;4942741;28;20192;-75
2022/05/13 03:29:17;;;;;;;6.57;5.33;;;;;;;;;;4945861;28;20192;-75
2022/05/13 03:31:42;;;;;;;6.27;5.07;;;;;;;;;;4951143;28;20241;-75
2022/05/13 03:34:07;;;;;;;7.80;5.00;;;;;;;;;;4943623;28;20208;-75
2022/05/13 03:36:32;;;;;;;7.00;4.83;;;;;;;;;;4951695;28;20191;-76
2022/05/13 03:38:58;;;;;;;9.23;5.77;;;;;;;;;;4956080;28;20173;-75
2022/05/13 03:41:23;;;;;;;6.27;4.97;;;;;;;;;;4953007;28;20205;-75
2022/05/13 03:43:48;;;;;;;8.10;6.33;;;;;;;;;;4950939;28;20734;-75
2022/05/13 03:46:14;;;;;;;8.17;5.10;;;;;;;;;;4947331;28;20238;-75
2022/05/13 03:48:39;;;;;;;7.70;4.83;;;;;;;;;;4942612;28;20265;-75
2022/05/13 03:51:04;;;;;;;7.87;5.63;;;;;;;;;;4945617;28;20189;-75
2022/05/13 03:53:29;;;;;;;7.17;5.03;;;;;;;;;;4945123;28;20225;-75
2022/05/13 03:55:55;;;;;;;7.83;5.03;;;;;;;;;;4943150;28;20197;-75
2022/05/13 03:58:20;;;;;;;9.27;5.07;;;;;;;;;;4944709;28;20283;-75
2022/05/13 04:00:46;;;;;;;4.87;4.37;;;;;;;;;;4940536;28;20377;-75
2022/05/13 04:03:12;;;;;;;6.87;4.67;;;;;;;;;;4945851;28;20201;-75
2022/05/13 04:11:05;;;;;;;9.50;4.95;;;;;;;;;;4946930;28;20199;-75
2022/05/13 04:16:14;;;;;;;5.97;4.43;;;;;;;;;;4945453;28;20266;-75
2022/05/13 04:18:41;;;;;;;5.23;4.53;;;;;;;;;;4944424;28;20270;-75
2022/05/13 04:21:07;;;;;;;4.00;3.50;;;;;;;;;;4943349;28;20195;-75
2022/05/13 04:23:37;;;;;;;7.60;4.83;;;;;;;;;;4952038;28;20189;-75
2022/05/13 04:26:03;;;;;;;5.50;3.33;;;;;;;;;;4943899;28;20397;-75
2022/05/13 04:28:28;;;;;;;5.93;4.40;;;;;;;;;;4943577;28;20260;-75
2022/05/13 04:30:54;;;;;;;5.47;4.20;;;;;;;;;;4943391;28;20196;-75
2022/05/13 04:33:19;;;;;;;6.47;5.00;;;;;;;;;;4939494;28;20266;-75
2022/05/13 04:35:44;;;;;;;10.50;4.53;;;;;;;;;;4947359;28;20228;-75
2022/05/13 04:38:09;;;;;;;7.60;4.27;;;;;;;;;;4952594;28;20176;-75
2022/05/13 04:40:36;;;;;;;8.10;4.00;;;;;;;;;;4951635;28;20188;-75
2022/05/13 04:43:02;;;;;;;6.03;3.80;;;;;;;;;;4952832;28;20179;-75
2022/05/13 04:45:29;;;;;;;8.67;6.03;;;;;;;;;;4949685;28;20191;-75
2022/05/13 04:50:39;;;;;;;6.53;3.97;;;;;;;;;;4946334;28;20259;-75
2022/05/13 04:53:05;;;;;;;6.00;3.87;;;;;;;;;;4943194;28;20242;-75
2022/05/13 04:55:31;;;;;;;4.20;3.80;;;;;;;;;;4943826;28;20181;-75
2022/05/13 04:57:56;;;;;;;6.47;4.17;;;;;;;;;;4950611;28;20175;-75
2022/05/13 05:00:22;;;;;;;8.60;4.10;;;;;;;;;;4943303;28;20187;-75
2022/05/13 05:02:47;;;;;;;6.40;3.87;;;;;;;;;;4942207;28;20187;-75
2022/05/13 05:05:12;;;;;;;5.20;4.63;;;;;;;;;;4947133;28;20204;-77
2022/05/13 05:07:44;;;;;;;4.77;4.37;;;;;;;;;;4958278;28;20182;-77
2022/05/13 05:10:10;;;;;;;6.43;4.30;;;;;;;;;;4957851;28;20266;-77
2022/05/13 05:12:35;;;;;;;5.33;4.40;;;;;;;;;;4957244;28;20260;-77
2022/05/13 05:15:01;;;;;;;14.90;5.73;;;;;;;;;;4956282;28;20265;-77
2022/05/13 05:17:26;;;;;;;7.33;4.47;;;;;;;;;;4951225;28;20179;-77
2022/05/13 05:19:51;;;;;;;4.40;3.90;;;;;;;;;;4952157;28;20175;-77
2022/05/13 05:22:16;;;;;;;5.07;4.37;;;;;;;;;;4965034;28;20250;-76
2022/05/13 05:24:41;;;;;;;7.07;4.43;;;;;;;;;;4951845;28;20197;-77
2022/05/13 05:27:09;;;;;;;6.10;4.10;;;;;;;;;;4950211;28;20177;-77
2022/05/13 05:29:35;;;;;;;5.00;3.87;;;;;;;;;;4955889;28;20230;-77
2022/05/13 05:32:00;;;;;;;7.23;4.37;;;;;;;;;;4946133;28;20186;-77
2022/05/13 05:34:25;;;;;;;6.43;4.10;;;;;;;;;;4952394;28;20278;-77
2022/05/13 05:36:51;;;;;;;5.67;4.27;;;;;;;;;;4956106;28;20184;-77
2022/05/13 05:39:17;;;;;;;4.93;3.83;;;;;;;;;;4952215;28;20185;-77
2022/05/13 05:41:42;;;;;;;7.20;4.30;;;;;;;;;;4957716;28;20187;-76
2022/05/13 05:44:07;;;;;;;3.57;3.13;;;;;;;;;;4952022;28;20188;-77
2022/05/13 05:46:32;;;;;;;6.43;3.73;;;;;;;;;;4951692;28;20203;-76
2022/05/13 05:48:58;;;;;;;6.87;4.10;;;;;;;;;;4953100;28;20187;-77
2022/05/13 05:51:23;;;;;;;5.03;3.80;;;;;;;;;;4955452;28;20192;-77
2022/05/13 05:59:16;;;;;;;7.93;4.67;;;;;;;;;;4958175;28;20692;-77
2022/05/13 06:01:41;;;;;;;6.70;3.90;;;;;;;;;;4964307;28;20171;-77
2022/05/13 06:04:07;;;;;;;7.87;3.70;;;;;;;;;;4960569;28;20241;-77
2022/05/13 06:06:32;;;;;;;3.83;3.33;;;;;;;;;;4955987;28;20179;-77
2022/05/13 06:08:58;;;;;;;6.77;3.97;;;;;;;;;;4955735;28;20210;-77
2022/05/13 06:11:24;;;;;;;4.23;3.83;;;;;;;;;;4959220;28;20191;-77
2022/05/13 06:13:53;;;;;;;6.77;4.23;;;;;;;;;;4955639;28;20207;-77
2022/05/13 06:16:19;;;;;;;5.93;3.87;;;;;;;;;;4958604;28;20183;-77
2022/05/13 06:18:45;;;;;;;4.60;4.07;;;;;;;;;;4954294;28;20181;-77
2022/05/13 06:21:10;;;;;;;5.17;4.20;;;;;;;;;;4955139;28;20235;-77
2022/05/13 06:23:36;;;;;;;6.37;4.07;;;;;;;;;;4955778;28;20206;-76
2022/05/13 06:26:02;;;;;;;6.47;3.40;;;;;;;;;;4956161;28;20186;-77
2022/05/13 06:28:28;;;;;;;5.50;3.70;;;;;;;;;;4954990;28;20179;-77
2022/05/13 06:30:53;;;;;;;6.53;3.37;;;;;;;;;;4955397;28;20182;-78
2022/05/13 06:33:18;;;;;;;8.27;4.00;;;;;;;;;;4952909;28;20374;-77
2022/05/13 06:35:44;;;;;;;5.37;3.60;;;;;;;;;;4954784;28;20230;-77
2022/05/13 06:38:13;;;;;;;5.83;3.63;;;;;;;;;;4957191;28;20186;-77
2022/05/13 06:40:38;;;;;;;8.63;3.77;;;;;;;;;;4954992;28;20182;-77
2022/05/13 06:43:03;;;;;;;4.30;3.50;;;;;;;;;;4957869;28;20172;-77
2022/05/13 06:45:29;;;;;;;8.87;3.60;;;;;;;;;;4957788;28;20169;-77
2022/05/13 06:47:54;;;;;;;8.30;3.77;;;;;;;;;;4962775;28;20172;-77
2022/05/13 06:50:21;;;;;;;3.53;3.17;;;;;;;;;;4958066;28;20182;-77
2022/05/13 06:52:46;;;;;;;5.17;4.67;;;;;;;;;;4951721;28;20174;-77
2022/05/13 06:55:13;;;;;;;6.70;3.43;;;;;;;;;;4952761;28;20228;-77
2022/05/13 06:57:38;;;;;;;6.07;3.73;;;;;;;;;;4955103;28;20210;-77
2022/05/13 07:00:04;;;;;;;10.67;4.37;;;;;;;;;;4952903;28;20177;-78
2022/05/13 07:02:29;;;;;;;7.47;3.23;;;;;;;;;;4953392;28;20212;-78
2022/05/13 07:04:55;;;;;;;3.70;2.63;;;;;;;;;;4953635;28;20257;-78
2022/05/13 07:07:20;;;;;;;5.50;3.30;;;;;;;;;;4955231;28;20188;-78
2022/05/13 07:09:45;;;;;;;4.67;3.33;;;;;;;;;;4954695;28;20289;-78
2022/05/13 07:12:11;;;;;;;4.07;3.10;;;;;;;;;;4954283;28;20183;-78
2022/05/13 07:14:36;;;;;;;6.57;3.30;;;;;;;;;;4953904;28;20208;-78
2022/05/13 07:17:02;;;;;;;4.03;2.70;;;;;;;;;;4960381;28;20196;-78
2022/05/13 07:19:28;;;;;;;5.90;3.00;;;;;;;;;;4952964;28;20173;-78
2022/05/13 07:21:53;;;;;;;4.13;3.37;;;;;;;;;;4957840;28;20186;-78
2022/05/13 07:24:18;;;;;;;4.50;2.83;;;;;;;;;;4955374;28;20264;-78
2022/05/13 07:26:44;;;;;;;5.53;2.90;;;;;;;;;;4955740;28;20175;-78
2022/05/13 07:29:09;;;;;;;7.67;2.97;;;;;;;;;;4954502;28;20207;-78
2022/05/13 07:31:35;;;;;;;3.83;2.73;;;;;;;;;;4954950;28;20185;-78
2022/05/13 07:34:01;;;;;;;4.10;3.03;;;;;;;;;;4955960;28;20204;-78
2022/05/13 07:36:26;;;;;;;3.73;2.80;;;;;;;;;;4955003;28;20254;-78
2022/05/13 07:41:41;;;;;;;8.70;3.00;;;;;;;;;;4941999;28;20192;-78
2022/05/13 07:44:07;;;;;;;6.17;3.13;;;;;;;;;;4950041;28;20180;-78
2022/05/13 07:46:32;;;;;;;4.23;3.07;;;;;;;;;;4953691;28;20187;-78
2022/05/13 07:48:57;;;;;;;4.90;3.10;;;;;;;;;;4954077;28;20264;-78
2022/05/13 07:51:26;;;;;;;4.87;3.17;;;;;;;;;;4953307;28;20577;-78
2022/05/13 07:53:51;;;;;;;9.27;3.17;;;;;;;;;;4954297;28;20202;-78
2022/05/13 07:56:16;;;;;;;3.53;2.90;;;;;;;;;;4950403;28;20177;-78
2022/05/13 07:58:41;;;;;;;4.00;3.10;;;;;;;;;;4957147;28;20173;-78
2022/05/13 08:01:07;;;;;;;5.97;3.20;;;;;;;;;;4962810;28;20262;-78
2022/05/13 08:03:32;;;;;;;6.90;3.33;;;;;;;;;;4957517;28;20276;-78
2022/05/13 08:06:02;;;;;;;13.17;3.77;;;;;;;;;;4952375;28;20189;-78
2022/05/13 08:08:30;;;;;;;4.47;3.07;;;;;;;;;;4957285;28;20181;-78
2022/05/13 08:10:57;;;;;;;7.63;3.63;;;;;;;;;;4960416;28;20171;-78
2022/05/13 08:13:23;;;;;;;6.23;3.43;;;;;;;;;;4953340;28;20202;-78
2022/05/13 08:15:49;;;;;;;5.33;2.93;;;;;;;;;;4955070;28;20270;-78
2022/05/13 08:18:15;;;;;;;4.73;2.97;;;;;;;;;;4951054;28;20210;-78
2022/05/13 08:20:40;;;;;;;4.30;3.10;;;;;;;;;;4946236;28;20181;-78
2022/05/13 08:23:06;;;;;;;5.97;2.90;;;;;;;;;;4948647;28;20245;-78
2022/05/13 08:25:31;;;;;;;6.03;3.27;;;;;;;;;;4953694;28;20182;-78
2022/05/13 08:27:57;;;;;;;6.77;3.20;;;;;;;;;;4953061;28;20204;-78
2022/05/13 08:30:22;;;;;;;4.43;3.10;;;;;;;;;;4951458;28;20179;-78
2022/05/13 08:32:48;;;;;;;4.77;3.03;;;;;;;;;;4953787;28;20198;-78
2022/05/13 08:35:14;;;;;;;5.40;2.97;;;;;;;;;;4951591;28;20282;-78
2022/05/13 08:37:49;;;;;;;5.77;3.10;;;;;;;;;;4952985;28;20181;-78
2022/05/13 08:40:35;;;;;;;7.17;3.20;;;;;;;;;;4947040;28;20210;-79
2022/05/13 08:43:03;;;;;;;6.27;3.43;;;;;;;;;;4922141;28;20233;-78
2022/05/13 08:45:29;;;;;;;7.20;3.20;;;;;;;;;;4951603;28;20170;-78
2022/05/13 08:47:58;;;;;;;9.50;3.07;;;;;;;;;;4952865;28;20229;-78
2022/05/13 08:50:25;;;;;;;5.03;2.70;;;;;;;;;;4952324;28;20174;-78
2022/05/13 08:53:06;;;;;;;5.63;3.13;;;;;;;;;;4955748;28;20597;-79
2022/05/13 08:55:51;;;;;;;7.30;3.53;;;;;;;;;;4951231;28;20181;-78
2022/05/13 08:58:27;;;;;;;5.77;3.07;;;;;;;;;;4952710;28;20212;-78
2022/05/13 09:00:53;;;;;;;3.33;3.00;;;;;;;;;;4953247;28;20176;-78
2022/05/13 09:03:51;;;;;;;4.80;3.20;;;;;;;;;;4952529;28;20211;-78
2022/05/13 09:06:20;;;;;;;4.67;2.70;;;;;;;;;;4933127;28;20230;-78
2022/05/13 09:08:46;;;;;;;5.67;3.30;;;;;;;;;;4950893;28;20217;-78
2022/05/13 09:11:30;;;;;;;3.90;2.90;;;;;;;;;;4950339;28;20214;-78
2022/05/13 09:13:55;;;;;;;5.70;2.07;;;;;;;;;;4952144;28;20199;-78
2022/05/13 09:16:25;;;;;;;2.50;2.00;;;;;;;;;;4953512;28;20181;-78
2022/05/13 09:19:03;;;;;;;6.70;2.50;;;;;;;;;;4952829;28;20215;-78
2022/05/13 09:21:28;;;;;;;5.63;2.70;;;;;;;;;;4953294;28;20226;-78
2022/05/13 09:23:53;;;;;;;4.10;2.73;;;;;;;;;;4958436;28;20180;-78
2022/05/13 09:26:23;;;;;;;5.30;2.70;;;;;;;;;;4948587;28;20623;-78
2022/05/13 09:29:03;;;;;;;6.23;2.90;;;;;;;;;;4952287;28;20191;-78
2022/05/13 09:31:30;;;;;;;10.87;3.77;;;;;;;;;;4951677;28;20189;-78
2022/05/13 09:33:55;;;;;;;7.77;3.03;;;;;;;;;;4952084;28;20219;-78
2022/05/13 09:36:23;;;;;;;3.63;3.10;;;;;;;;;;4965823;28;20320;-78
2022/05/13 09:38:51;;;;;;;4.87;3.20;;;;;;;;;;4952374;28;20205;-78
2022/05/13 09:41:30;;;;;;;3.90;3.00;;;;;;;;;;4953002;28;20247;-78
2022/05/13 09:44:16;;;;;;;4.47;2.97;;;;;;;;;;4953072;28;20207;-78
2022/05/13 09:46:42;;;;;;;4.77;3.27;;;;;;;;;;4964363;28;20192;-78
2022/05/13 09:49:20;;;;;;;5.70;3.20;;;;;;;;;;4973259;28;20184;-78
2022/05/13 09:51:57;;;;;;;5.27;3.20;;;;;;;;;;4951328;28;20204;-78
2022/05/13 09:54:22;;;;;;;3.17;2.87;;;;;;;;;;4956927;28;20251;-78
2022/05/13 09:56:48;;;;;;;5.37;3.53;;;;;;;;;;4947876;28;20184;-78
2022/05/13 09:59:24;;;;;;;5.43;3.10;;;;;;;;;;4951072;28;20177;-78
2022/05/13 10:01:49;;;;;;;4.63;3.83;;;;;;;;;;4951366;28;20186;-79
2022/05/13 10:04:22;;;;;;;5.50;3.20;;;;;;;;;;4954228;28;20183;-78
2022/05/13 10:06:47;;;;;;;5.10;3.27;;;;;;;;;;4952951;28;20264;-78
2022/05/13 10:15:05;;;;;;;5.37;3.90;;;;;;;;;;4947672;28;20225;-78
2022/05/13 10:17:30;;;;;;;10.20;4.10;;;;;;;;;;4941376;28;20187;-78
2022/05/13 10:19:56;;;;;;;6.57;3.70;;;;;;;;;;4951004;28;20260;-77
2022/05/13 10:22:32;;;;;;;6.00;3.43;;;;;;;;;;4942551;28;20186;-78
2022/05/13 10:25:17;;;;;;;5.27;3.13;;;;;;;;;;4955088;28;20170;-78
2022/05/13 10:27:52;;;;;;;2.83;2.60;;;;;;;;;;4950612;28;20196;-78
2022/05/13 10:30:33;;;;;;;8.23;4.33;;;;;;;;;;4968899;28;20209;-78
2022/05/13 10:33:04;;;;;;;6.73;4.20;;;;;;;;;;4951421;28;20206;-78
2022/05/13 10:35:32;;;;;;;6.00;3.67;;;;;;;;;;4954170;28;20295;-78
2022/05/13 10:38:17;;;;;;;5.93;3.97;;;;;;;;;;4949395;28;20175;-78
2022/05/13 10:40:43;;;;;;;7.50;4.37;;;;;;;;;;4953418;28;20216;-78
2022/05/13 10:43:25;;;;;;;4.53;3.97;;;;;;;;;;4954730;28;20426;-78
2022/05/13 10:45:51;;;;;;;5.63;3.83;;;;;;;;;;4954665;28;20204;-78
2022/05/13 10:48:16;;;;;;;6.37;4.17;;;;;;;;;;4953529;28;20192;-78
2022/05/13 10:50:46;;;;;;;4.83;3.80;;;;;;;;;;4955264;28;20184;-78
2022/05/13 10:53:16;;;;;;;9.37;4.80;;;;;;;;;;4954647;28;20229;-78
2022/05/13 10:56:00;;;;;;;4.33;3.40;;;;;;;;;;4954507;28;20173;-78
2022/05/13 10:58:44;;;;;;;6.17;3.70;;;;;;;;;;4956380;28;20272;-78
2022/05/13 11:01:12;;;;;;;6.13;4.20;;;;;;;;;;4967840;28;20184;-78
2022/05/13 11:03:47;;;;;;;6.83;3.40;;;;;;;;;;4954840;28;20214;-77
2022/05/13 11:06:31;;;;;;;7.30;3.47;;;;;;;;;;4956513;28;20197;-78
2022/05/13 11:08:56;;;;;;;5.57;3.97;;;;;;;;;;4955411;28;20202;-78
2022/05/13 11:11:34;;;;;;;7.33;4.00;;;;;;;;;;4955151;28;20251;-79
2022/05/13 11:13:59;;;;;;;6.60;4.10;;;;;;;;;;4965531;28;20198;-78
2022/05/13 11:16:34;;;;;;;7.47;3.37;;;;;;;;;;4954847;28;20385;-78
2022/05/13 11:19:11;;;;;;;4.87;3.37;;;;;;;;;;4954434;28;20181;-78
2022/05/13 11:21:51;;;;;;;8.20;4.00;;;;;;;;;;4966414;28;20173;-78
2022/05/13 11:27:22;;;;;;;10.57;3.60;;;;;;;;;;4954106;28;20316;-78
2022/05/13 11:29:59;;;;;;;6.57;3.10;;;;;;;;;;4952856;28;20271;-78
2022/05/13 11:32:38;;;;;;;5.47;3.17;;;;;;;;;;4953685;28;20255;-78
2022/05/13 11:35:21;;;;;;;4.63;3.40;;;;;;;;;;4954568;28;20234;-78
2022/05/13 11:37:47;;;;;;;3.97;3.07;;;;;;;;;;4953352;28;20177;-78
2022/05/13 11:40:12;;;;;;;3.80;2.90;;;;;;;;;;4956992;28;20171;-78
2022/05/13 11:45:38;;;;;;;5.33;2.83;;;;;;;;;;4948687;28;20275;-78
2022/05/13 11:48:15;;;;;;;7.53;3.03;;;;;;;;;;4953774;28;20183;-78
2022/05/13 11:50:41;;;;;;;5.40;3.00;;;;;;;;;;4966920;28;20270;-78
2022/05/13 11:53:06;;;;;;;4.47;3.40;;;;;;;;;;4953054;28;20318;-78
2022/05/13 11:55:47;;;;;;;3.33;3.00;;;;;;;;;;4954083;28;20192;-78
2022/05/13 11:58:31;;;;;;;3.73;2.90;;;;;;;;;;4953625;28;20184;-77
2022/05/13 12:00:57;;;;;;;3.40;2.63;;;;;;;;;;4954329;28;20270;-78
2022/05/13 12:03:22;;;;;;;4.27;3.03;;;;;;;;;;4951754;28;20288;-79
2022/05/13 12:05:48;;;;;;;5.60;2.80;;;;;;;;;;4953037;28;20189;-77
2022/05/13 12:08:38;;;;;;;5.30;2.77;;;;;;;;;;4956011;28;20270;-77
2022/05/13 12:11:23;;;;;;;6.00;2.53;;;;;;;;;;4954471;28;20265;-78
2022/05/13 12:13:48;;;;;;;5.13;2.43;;;;;;;;;;4953017;28;20240;-78
2022/05/13 12:16:19;;;;;;;4.07;2.60;;;;;;;;;;4955789;28;20215;-78
2022/05/13 12:19:03;;;;;;;3.43;2.70;;;;;;;;;;4952791;28;20190;-79
2022/05/13 12:21:42;;;;;;;3.83;3.00;;;;;;;;;;4954870;28;20271;-78
2022/05/13 12:24:10;;;;;;;3.57;3.07;;;;;;;;;;4953296;28;20206;-78
2022/05/13 12:26:51;;;;;;;4.93;2.87;;;;;;;;;;4959267;28;20236;-77
2022/05/13 12:29:18;;;;;;;8.13;2.70;;;;;;;;;;4951981;28;20187;-78
2022/05/13 12:31:48;;;;;;;2.83;2.43;;;;;;;;;;4952930;28;20178;-79
2022/05/13 12:39:52;;;;;;;2.83;2.63;;;;;;;;;;4948590;28;20185;-78
2022/05/13 12:42:34;;;;;;;3.20;2.15;;;;;;;;;;4953261;28;20182;-78
2022/05/13 12:45:00;;;;;;;4.27;2.67;;;;;;;;;;4952671;28;20191;-79
2022/05/13 12:47:29;;;;;;;6.50;2.30;;;;;;;;;;4956955;28;20181;-78
2022/05/13 12:49:57;;;;;;;2.87;2.30;;;;;;;;;;4952452;28;20184;-78
2022/05/13 12:52:26;;;;;;;3.23;2.50;;;;;;;;;;4951590;28;20454;-78
2022/05/13 12:54:52;;;;;;;5.00;2.63;;;;;;;;;;4963444;28;20228;-78
2022/05/13 12:57:38;;;;;;;2.30;2.13;;;;;;;;;;4950522;28;20193;-79
2022/05/13 13:00:04;;;;;;;4.70;2.43;;;;;;;;;;4953283;28;20187;-78
2022/05/13 13:02:30;;;;;;;4.77;2.50;;;;;;;;;;4952094;28;20190;-78
2022/05/13 13:04:57;;;;;;;4.47;2.20;;;;;;;;;;4951885;28;20175;-77
2022/05/13 13:07:25;;;;;;;5.15;1.80;;;;;;;;;;4952237;28;20179;-77
2022/05/13 13:09:54;;;;;;;2.47;2.23;;;;;;;;;;4954233;28;20178;-78
2022/05/13 13:12:34;;;;;;;2.57;2.07;;;;;;;;;;4953234;28;20196;-79
2022/05/13 13:15:03;;;;;;;3.80;2.40;;;;;;;;;;4952515;28;20191;-78
2022/05/13 13:17:28;;;;;;;2.43;2.13;;;;;;;;;;4950260;28;20208;-78
2022/05/13 13:19:58;;;;;;;4.80;2.27;;;;;;;;;;4964325;28;20179;-78
2022/05/13 13:22:25;;;;;;;6.00;3.00;;;;;;;;;;4951755;28;20187;-79
2022/05/13 13:24:51;;;;;;;3.63;2.30;;;;;;;;;;4955385;28;20247;-78
2022/05/13 13:27:18;;;;;;;3.70;2.50;;;;;;;;;;4949908;28;20176;-78
2022/05/13 13:29:44;;;;;;;3.60;2.47;;;;;;;;;;4953576;28;20224;-78
2022/05/13 13:32:14;;;;;;;2.90;2.60;;;;;;;;;;4948001;28;20187;-78
2022/05/13 13:34:41;;;;;;;2.03;1.83;;;;;;;;;;4950345;28;20258;-78
2022/05/13 13:37:08;;;;;;;2.87;1.90;;;;;;;;;;4952560;28;20175;-78
2022/05/13 13:39:34;;;;;;;2.83;1.87;;;;;;;;;;4951703;28;20228;-77
2022/05/13 13:42:00;;;;;;;2.50;2.20;;;;;;;;;;4951496;28;20183;-77
2022/05/13 13:44:25;;;;;;;3.07;2.40;;;;;;;;;;4952400;28;20292;-78
2022/05/13 13:46:51;;;;;;;5.03;2.63;;;;;;;;;;4954113;28;20241;-78
2022/05/13 13:49:18;;;;;;;2.80;2.00;;;;;;;;;;4955606;28;20187;-77
2022/05/13 13:51:50;;;;;;;2.47;2.00;;;;;;;;;;4956340;28;20216;-77
2022/05/13 13:54:17;;;;;;;3.83;2.10;;;;;;;;;;4953650;28;20293;-77
2022/05/13 13:57:01;;;;;;;3.77;2.20;;;;;;;;;;4954511;28;20164;-77
2022/05/13 13:59:40;;;;;;;5.27;2.30;;;;;;;;;;4952148;28;20179;-78
2022/05/13 14:02:06;;;;;;;2.60;1.97;;;;;;;;;;4948719;28;20181;-77
2022/05/13 14:04:31;;;;;;;3.70;1.63;;;;;;;;;;4951972;28;20213;-77
2022/05/13 14:06:59;;;;;;;3.77;1.90;;;;;;;;;;4956369;28;20176;-77
2022/05/13 14:09:36;;;;;;;2.87;1.87;;;;;;;;;;4955740;28;20211;-77
2022/05/13 14:12:03;;;;;;;4.13;1.80;;;;;;;;;;4954648;28;20184;-77
2022/05/13 14:14:28;;;;;;;5.37;2.47;;;;;;;;;;4956559;28;20217;-78
2022/05/13 14:16:58;;;;;;;5.97;2.70;;;;;;;;;;4955494;28;20240;-78
2022/05/13 14:19:25;;;;;;;3.23;2.20;;;;;;;;;;4952114;28;20173;-77
2022/05/13 14:21:55;;;;;;;2.20;1.63;;;;;;;;;;4953524;28;20177;-78
2022/05/13 14:24:40;;;;;;;3.00;1.83;;;;;;;;;;4955451;28;20282;-78
2022/05/13 14:27:08;;;;;;;2.40;1.90;;;;;;;;;;4968966;28;20189;-77
2022/05/13 14:29:34;;;;;;;2.77;1.83;;;;;;;;;;4958015;28;20216;-77
2022/05/13 14:32:05;;;;;;;2.77;2.37;;;;;;;;;;4954057;28;20228;-77
2022/05/13 14:34:30;;;;;;;2.50;2.07;;;;;;;;;;4957227;28;20221;-77
2022/05/13 14:36:58;;;;;;;3.10;1.73;;;;;;;;;;4945628;28;20177;-77
2022/05/13 14:39:48;;;;;;;5.30;2.30;;;;;;;;;;4956392;28;20209;-77
2022/05/13 14:42:22;;;;;;;4.57;1.93;;;;;;;;;;4955287;28;20174;-77
2022/05/13 14:44:50;;;;;;;2.50;1.97;;;;;;;;;;4953053;28;20181;-77
2022/05/13 14:47:17;;;;;;;2.13;1.80;;;;;;;;;;4952889;28;20402;-77
2022/05/13 14:49:49;;;;;;;2.70;2.00;;;;;;;;;;4956191;28;20178;-77
2022/05/13 14:52:34;;;;;;;2.50;1.45;;;;;;;;;;4949392;28;20182;-77
2022/05/13 14:55:00;;;;;;;2.97;1.90;;;;;;;;;;4951858;28;20208;-77
2022/05/13 14:57:26;;;;;;;3.63;1.85;;;;;;;;;;4954643;28;20178;-77
2022/05/13 14:59:51;;;;;;;5.87;2.43;;;;;;;;;;4953793;28;20244;-77
2022/05/13 15:02:35;;;;;;;3.00;1.70;;;;;;;;;;4955067;28;20187;-77
2022/05/13 15:05:16;;;;;;;3.23;1.90;;;;;;;;;;4954194;28;20272;-78
2022/05/13 15:07:41;;;;;;;2.60;2.05;;;;;;;;;;4975566;28;20186;-77
2022/05/13 15:10:11;;;;;;;3.93;1.70;;;;;;;;;;4956082;28;20181;-77
2022/05/13 15:12:37;;;;;;;2.05;1.73;;;;;;;;;;4954903;28;20209;-77
2022/05/13 15:15:03;;;;;;;2.58;1.60;;;;;;;;;;4959156;28;20227;-78
2022/05/13 15:17:28;;;;;;;3.10;1.73;;;;;;;;;;4959718;28;20174;-77
2022/05/13 15:19:54;;;;;;;2.67;1.77;;;;;;;;;;4953847;28;20279;-77
2022/05/13 15:22:22;;;;;;;3.67;1.70;;;;;;;;;;4972549;28;20264;-78
2022/05/13 15:24:48;;;;;;;2.60;1.67;;;;;;;;;;4971362;28;20220;-77
2022/05/13 15:27:16;;;;;;;5.03;1.85;;;;;;;;;;4953189;28;20216;-77
2022/05/13 15:29:42;;;;;;;3.67;1.87;;;;;;;;;;4954848;28;20201;-77
2022/05/13 15:32:08;;;;;;;3.60;1.77;;;;;;;;;;4953771;28;20205;-80